createdAt,value
2022-10-09T00:01:01.973Z,25.4
2022-10-09T00:06:39.595Z,25.4
2022-10-09T00:12:16.422Z,25.4
2022-10-09T00:17:54.725Z,25.4
2022-10-09T00:23:31.440Z,25.4
2022-10-09T00:29:11.952Z,25.4
2022-10-09T00:34:34.724Z,25.4
2022-10-09T00:40:11.166Z,25.3
2022-10-09T00:45:32.710Z,25.3
2022-10-09T00:51:11.317Z,25.3
2022-10-09T00:56:49.121Z,25.3
2022-10-09T01:02:26.994Z,25.3
2022-10-09T01:08:04.289Z,25.3
2022-10-09T01:13:41.178Z,25.3
2022-10-09T01:19:18.682Z,25.3
2022-10-09T01:24:56.435Z,25.3
2022-10-09T01:30:17.614Z,25.2
2022-10-09T01:35:54.671Z,25.2
2022-10-09T01:41:16.680Z,25.2
2022-10-09T01:46:54.384Z,25.2
2022-10-09T01:52:16.220Z,25.2
2022-10-09T01:57:38.864Z,25.2
2022-10-09T02:03:15.872Z,25.1
2022-10-09T02:08:37.220Z,25.1
2022-10-09T02:14:14.478Z,25.1
2022-10-09T02:19:37.167Z,25.1
2022-10-09T02:25:18.985Z,25.1
2022-10-09T02:31:02.585Z,25.1
2022-10-09T02:36:38.516Z,25.1
2022-10-09T02:42:14.948Z,25.1
2022-10-09T02:47:52.166Z,25.1
2022-10-09T02:53:28.680Z,25.1
2022-10-09T02:58:53.740Z,25.1
2022-10-09T03:04:32.677Z,25
2022-10-09T03:09:54.453Z,25
2022-10-09T03:15:15.528Z,25
2022-10-09T03:20:22.432Z,25
2022-10-09T03:25:43.657Z,25
2022-10-09T03:31:05.522Z,24.9
2022-10-09T03:36:41.345Z,24.9
2022-10-09T03:42:02.046Z,24.9
2022-10-09T03:51:59.606Z,24.9
2022-10-09T03:57:21.155Z,24.9
2022-10-09T04:02:28.252Z,24.9
2022-10-09T04:07:50.245Z,24.9
2022-10-09T04:13:10.691Z,24.9
2022-10-09T04:18:32.350Z,24.8
2022-10-09T04:23:55.262Z,24.8
2022-10-09T04:29:01.545Z,24.7
2022-10-09T04:34:23.949Z,24.6
2022-10-09T04:39:29.624Z,24.5
2022-10-09T04:44:51.866Z,24.4
2022-10-09T04:50:16.281Z,24.4
2022-10-09T04:55:43.220Z,24.4
2022-10-09T05:01:04.586Z,24.4
2022-10-09T05:06:43.856Z,24.3
2022-10-09T05:12:21.165Z,24.3
2022-10-09T05:18:29.523Z,24.3
2022-10-09T05:24:10.313Z,24.3
2022-10-09T05:29:32.648Z,24.2
2022-10-09T05:35:14.034Z,24.2
2022-10-09T05:40:52.075Z,24.1
2022-10-09T05:46:30.560Z,24.1
2022-10-09T05:52:07.424Z,24.1
2022-10-09T05:57:48.822Z,24.1
2022-10-09T06:03:27.600Z,24.1
2022-10-09T06:09:04.878Z,24.1
2022-10-09T06:14:47.789Z,24.1
2022-10-09T06:20:29.503Z,24
2022-10-09T06:26:11.895Z,23.9
2022-10-09T06:31:50.431Z,23.9
2022-10-09T06:37:33.651Z,23.9
2022-10-09T06:43:10.702Z,23.8
2022-10-09T06:48:48.750Z,23.8
2022-10-09T06:54:26.943Z,23.8
2022-10-09T07:00:04.232Z,23.8
2022-10-09T07:05:43.006Z,23.7
2022-10-09T07:11:20.527Z,23.6
2022-10-09T07:16:58.656Z,23.6
2022-10-09T07:22:40.091Z,23.6
2022-10-09T07:28:18.123Z,23.6
2022-10-09T07:33:56.997Z,23.5
2022-10-09T07:39:33.933Z,23.5
2022-10-09T07:45:11.891Z,23.4
2022-10-09T07:50:49.478Z,23.4
2022-10-09T07:56:27.162Z,21.7
2022-10-09T08:01:53.473Z,50.1
2022-10-09T08:07:34.763Z,46.1
2022-10-09T08:13:12.842Z,46.4
2022-10-09T08:18:52.037Z,48.9
2022-10-09T08:24:28.538Z,51.6
2022-10-09T08:30:10.942Z,50.1
2022-10-09T08:35:51.230Z,45.9
2022-10-09T08:41:52.779Z,46.5
2022-10-09T08:46:59.617Z,47.6
2022-10-09T08:52:37.389Z,51.2
2022-10-09T08:57:59.300Z,55
2022-10-09T09:03:37.813Z,56.5
2022-10-09T09:09:16.252Z,57.1
2022-10-09T09:14:38.440Z,57.8
2022-10-09T09:20:15.694Z,58.3
2022-10-09T09:25:38.349Z,56
2022-10-09T09:31:03.498Z,55.6
2022-10-09T09:36:29.259Z,56.1
2022-10-09T09:43:11.226Z,59.3
2022-10-09T09:48:17.200Z,59.3
2022-10-09T09:54:35.467Z,59.3
2022-10-09T10:00:07.588Z,59.7
2022-10-09T10:05:16.326Z,60.1
2022-10-09T10:10:41.994Z,61
2022-10-09T10:16:04.370Z,62.1
2022-10-09T10:21:32.397Z,62.4
2022-10-09T10:26:57.285Z,62.8
2022-10-09T10:32:20.313Z,63.1
2022-10-09T10:37:42.588Z,63.5
2022-10-09T10:43:19.895Z,63.8
2022-10-09T10:48:42.902Z,64
2022-10-09T10:54:06.411Z,64.3
2022-10-09T10:59:46.673Z,64.3
2022-10-09T11:05:00.238Z,64.5
2022-10-09T11:10:37.776Z,64.6
2022-10-09T11:16:21.926Z,64.7
2022-10-09T11:21:47.209Z,64.7
2022-10-09T11:26:53.776Z,64.8
2022-10-09T11:32:16.813Z,64.8
2022-10-09T11:37:54.695Z,65.1
2022-10-09T11:43:08.726Z,65.1
2022-10-09T11:48:33.440Z,64.6
2022-10-09T11:53:55.995Z,64.3
2022-10-09T11:59:17.268Z,64.4
2022-10-09T12:04:55.103Z,64.5
2022-10-09T12:10:21.251Z,64.4
2022-10-09T12:15:43.845Z,64.1
2022-10-09T12:21:24.641Z,63.8
2022-10-09T12:27:11.548Z,63.5
2022-10-09T12:32:49.328Z,63.1
2022-10-09T12:38:26.729Z,62.8
2022-10-09T12:44:11.290Z,61.8
2022-10-09T12:49:48.406Z,54.9
2022-10-09T12:55:26.802Z,49.7
2022-10-09T13:01:06.616Z,45.7
2022-10-09T13:06:44.944Z,64.3
2022-10-09T13:12:22.575Z,59.3
2022-10-09T13:18:00.752Z,53.3
2022-10-09T13:23:42.020Z,48.2
2022-10-09T13:29:20.233Z,44.4
2022-10-09T13:34:58.078Z,41.7
2022-10-09T13:40:37.112Z,39.6
2022-10-09T13:46:14.791Z,37.9
2022-10-09T13:51:56.142Z,36.6
2022-10-09T13:57:34.390Z,35.5
2022-10-09T14:03:13.997Z,34.7
2022-10-09T14:08:52.034Z,34
2022-10-09T14:14:28.778Z,33.4
2022-10-09T14:20:06.954Z,33
2022-10-09T14:25:47.525Z,32.6
2022-10-09T14:31:25.418Z,32.3
2022-10-09T14:37:13.805Z,32.1
2022-10-09T14:43:03.819Z,31.6
2022-10-09T14:48:25.914Z,30.9
2022-10-09T14:54:02.971Z,30.4
2022-10-09T14:59:39.886Z,29.9
2022-10-09T15:05:18.480Z,29.5
2022-10-09T15:10:56.625Z,29.3
2022-10-09T15:16:39.200Z,29.2
2022-10-09T15:22:16.410Z,29.1
2022-10-09T15:27:54.934Z,29
2022-10-09T15:33:33.462Z,28.8
2022-10-09T15:39:16.003Z,28.7
2022-10-09T15:44:54.553Z,28.6
2022-10-09T15:51:00.061Z,28.6
2022-10-09T15:56:21.138Z,28.6
2022-10-09T16:02:02.055Z,28.5
2022-10-09T16:07:40.311Z,28.5
2022-10-09T16:13:26.824Z,28.5
2022-10-09T16:19:07.877Z,28.4
2022-10-09T16:24:32.277Z,28.4
2022-10-09T16:29:54.089Z,28.4
2022-10-09T16:35:31.735Z,28.4
2022-10-09T16:41:18.762Z,28.4
2022-10-09T16:46:46.971Z,28.4
2022-10-09T16:52:14.216Z,28.4
2022-10-09T16:57:52.236Z,28.4
2022-10-09T17:03:14.908Z,28.4
2022-10-09T17:08:52.569Z,28.4
2022-10-09T17:14:35.891Z,28.4
2022-10-09T17:19:59.655Z,28.3
2022-10-09T17:25:37.654Z,28.1
2022-10-09T17:31:00.834Z,27.9
2022-10-09T17:36:44.023Z,27.9
2022-10-09T18:03:50.154Z,27.8
2022-10-09T18:09:12.450Z,27.8
2022-10-09T18:14:34.050Z,27.7
2022-10-09T18:20:01.857Z,27.7
2022-10-09T18:25:24.294Z,27.7
2022-10-09T18:31:06.422Z,27.6
2022-10-09T18:36:31.649Z,27.6
2022-10-09T18:42:09.028Z,27.6
2022-10-09T18:47:46.621Z,27.7
2022-10-09T18:53:25.610Z,27.7
2022-10-09T18:59:05.792Z,27.6
2022-10-09T19:04:51.896Z,27.6
2022-10-09T19:10:30.646Z,27.6
2022-10-09T19:16:08.857Z,27.4
2022-10-09T19:21:46.525Z,27.4
2022-10-09T19:27:28.497Z,27.3
2022-10-09T19:33:09.693Z,27.3
2022-10-09T19:38:51.171Z,27.3
2022-10-09T19:44:29.270Z,27.3
2022-10-09T19:49:55.310Z,27.3
2022-10-09T19:55:32.006Z,27.3
2022-10-09T20:00:53.685Z,27.2
2022-10-09T20:06:31.243Z,27.2
2022-10-09T20:11:57.462Z,27.1
2022-10-09T20:17:37.571Z,26.6
2022-10-09T20:22:59.859Z,26.1
2022-10-09T20:28:27.414Z,25.7
2022-10-09T20:34:06.231Z,25.4
2022-10-09T20:39:32.719Z,25.2
2022-10-09T20:45:10.363Z,25
2022-10-09T20:50:32.338Z,24.8
2022-10-09T20:56:09.860Z,24.7
2022-10-09T21:01:20.912Z,24.6
2022-10-09T21:06:27.839Z,24.4
2022-10-09T21:12:07.836Z,24.4
2022-10-09T21:17:30.197Z,24.3
2022-10-09T21:23:13.605Z,24.2
2022-10-09T21:28:51.132Z,24.1
2022-10-09T21:34:17.627Z,24
2022-10-09T21:40:17.807Z,23.9
2022-10-09T21:45:54.979Z,23.9
2022-10-09T21:51:31.205Z,23.8
2022-10-09T21:57:09.312Z,23.8
2022-10-09T22:02:32.945Z,23.8
2022-10-09T22:08:10.663Z,23.7
2022-10-09T22:13:49.468Z,23.6
2022-10-09T22:19:15.071Z,23.6
2022-10-09T22:24:53.200Z,23.6
2022-10-09T22:30:31.592Z,23.6
2022-10-09T22:36:09.033Z,23.5
2022-10-09T22:41:45.298Z,23.5
2022-10-09T22:47:22.954Z,23.5
2022-10-09T22:52:43.615Z,23.5
2022-10-09T22:58:05.247Z,23.4
2022-10-09T23:03:42.297Z,23.4
2022-10-09T23:09:20.109Z,23.4
2022-10-09T23:14:41.952Z,23.4
2022-10-09T23:20:05.241Z,23.4
2022-10-09T23:25:26.883Z,23.4
2022-10-09T23:31:04.064Z,23.3
2022-10-09T23:36:41.874Z,23.3
2022-10-09T23:42:18.096Z,23.3
2022-10-09T23:47:45.525Z,23.3
2022-10-09T23:53:23.633Z,23.3
2022-10-09T23:58:44.550Z,23.3
